createdAt,value
2018-02-07T00:00:05.211Z,63.44
2018-02-07T00:02:32.891Z,63.74
2018-02-07T00:05:00.756Z,63.65
2018-02-07T00:07:28.430Z,63.49
2018-02-07T00:09:56.124Z,64.12
2018-02-07T00:12:23.842Z,64.07
2018-02-07T00:14:51.517Z,64.02
2018-02-07T00:17:19.230Z,63.51
2018-02-07T00:19:46.892Z,63.35
2018-02-07T00:22:14.566Z,63.43
2018-02-07T00:24:42.287Z,63.55
2018-02-07T00:27:09.967Z,63.31
2018-02-07T00:29:37.913Z,62.96
2018-02-07T00:32:05.590Z,62.78
2018-02-07T00:34:33.282Z,62.63
2018-02-07T00:37:00.979Z,62.72
2018-02-07T00:39:28.660Z,62.46
2018-02-07T00:41:56.726Z,62.56
2018-02-07T00:44:24.411Z,62.44
2018-02-07T00:46:52.100Z,62.48
2018-02-07T00:49:19.788Z,62.72
2018-02-07T00:51:47.472Z,62.61
2018-02-07T00:54:15.198Z,63.02
2018-02-07T00:56:42.867Z,62.92
2018-02-07T00:59:10.548Z,63.24
2018-02-07T01:01:38.252Z,63.07
2018-02-07T01:04:05.926Z,62.81
2018-02-07T01:06:33.631Z,62.80
2018-02-07T01:09:01.317Z,62.80
2018-02-07T01:11:29.003Z,62.81
2018-02-07T01:13:56.704Z,62.50
2018-02-07T01:16:24.400Z,62.63
2018-02-07T01:18:52.099Z,62.43
2018-02-07T01:21:19.788Z,62.47
2018-02-07T01:23:47.459Z,62.55
2018-02-07T01:26:15.148Z,62.42
2018-02-07T01:28:42.833Z,62.40
2018-02-07T01:31:10.557Z,62.47
2018-02-07T01:33:38.223Z,62.45
2018-02-07T01:36:05.904Z,62.34
2018-02-07T01:38:33.606Z,62.46
2018-02-07T01:41:01.281Z,62.09
2018-02-07T01:43:29.183Z,62.07
2018-02-07T01:45:56.872Z,62.60
2018-02-07T01:48:24.560Z,62.63
2018-02-07T01:50:52.265Z,62.19
2018-02-07T01:53:19.939Z,62.37
2018-02-07T01:55:47.807Z,62.32
2018-02-07T01:58:15.644Z,62.34
2018-02-07T02:00:43.307Z,62.53
2018-02-07T02:03:11.012Z,62.69
2018-02-07T02:05:38.684Z,62.61
2018-02-07T02:08:06.624Z,62.87
2018-02-07T02:10:34.307Z,63.89
2018-02-07T02:13:01.991Z,63.54
2018-02-07T02:15:29.691Z,63.47
2018-02-07T02:17:57.375Z,63.14
2018-02-07T02:20:25.240Z,63.23
2018-02-07T02:22:52.911Z,62.88
2018-02-07T02:25:20.568Z,62.81
2018-02-07T02:27:48.257Z,62.70
2018-02-07T02:30:15.970Z,62.87
2018-02-07T02:32:43.699Z,62.83
2018-02-07T02:35:11.467Z,62.56
2018-02-07T02:37:39.135Z,62.82
2018-02-07T02:40:06.856Z,63.18
2018-02-07T02:42:34.530Z,63.27
2018-02-07T02:45:02.487Z,62.94
2018-02-07T02:47:30.165Z,62.78
2018-02-07T02:49:57.838Z,62.81
2018-02-07T02:52:25.545Z,62.87
2018-02-07T02:54:53.203Z,62.89
2018-02-07T02:57:21.140Z,62.84
2018-02-07T02:59:48.817Z,62.79
2018-02-07T03:02:16.501Z,62.71
2018-02-07T03:04:44.203Z,62.78
2018-02-07T03:07:11.873Z,62.97
2018-02-07T03:09:39.923Z,62.82
2018-02-07T03:12:07.621Z,62.97
2018-02-07T03:14:35.297Z,63.12
2018-02-07T03:17:03.011Z,63.89
2018-02-07T03:19:30.687Z,63.97
2018-02-07T03:21:58.414Z,63.93
2018-02-07T03:24:26.092Z,63.64
2018-02-07T03:26:53.785Z,63.79
2018-02-07T03:29:21.488Z,63.64
2018-02-07T03:31:49.167Z,63.55
2018-02-07T03:34:17.008Z,63.65
2018-02-07T03:36:44.669Z,63.58
2018-02-07T03:39:12.362Z,63.38
2018-02-07T03:41:40.062Z,63.76
2018-02-07T03:44:07.742Z,63.90
2018-02-07T03:46:36.282Z,63.69
2018-02-07T03:49:03.957Z,63.72
2018-02-07T03:51:31.636Z,63.65
2018-02-07T03:53:59.335Z,63.65
2018-02-07T03:56:27.015Z,63.86
2018-02-07T03:58:54.898Z,63.92
2018-02-07T04:01:22.576Z,64.33
2018-02-07T04:03:50.261Z,64.99
2018-02-07T04:06:17.969Z,65.73
2018-02-07T04:08:45.652Z,66.19
2018-02-07T04:11:13.621Z,66.17
2018-02-07T04:13:41.325Z,66.24
2018-02-07T04:16:08.992Z,66.07
2018-02-07T04:18:36.762Z,65.61
2018-02-07T04:21:04.449Z,65.68
2018-02-07T04:23:32.756Z,64.92
2018-02-07T04:26:00.438Z,64.76
2018-02-07T04:28:28.174Z,65.70
2018-02-07T04:30:55.997Z,65.75
2018-02-07T04:33:23.684Z,65.82
2018-02-07T04:35:51.592Z,65.60
2018-02-07T04:38:19.287Z,66.39
2018-02-07T04:40:46.971Z,66.26
2018-02-07T04:43:14.703Z,66.20
2018-02-07T04:45:42.378Z,66.11
2018-02-07T04:48:10.314Z,66.39
2018-02-07T04:50:37.992Z,66.67
2018-02-07T04:53:05.655Z,66.50
2018-02-07T04:55:33.366Z,66.87
2018-02-07T04:58:01.215Z,65.93
2018-02-07T05:00:29.120Z,65.65
2018-02-07T05:02:56.828Z,65.47
2018-02-07T05:05:24.500Z,65.42
2018-02-07T05:07:52.203Z,65.75
2018-02-07T05:10:19.886Z,66.05
2018-02-07T05:12:47.790Z,65.52
2018-02-07T05:15:15.466Z,66.54
2018-02-07T05:17:43.143Z,65.68
2018-02-07T05:20:10.847Z,65.87
2018-02-07T05:22:38.540Z,65.42
2018-02-07T05:25:06.561Z,66.09
2018-02-07T05:27:34.323Z,65.77
2018-02-07T05:30:01.999Z,65.39
2018-02-07T05:32:29.689Z,65.60
2018-02-07T05:34:57.366Z,65.42
2018-02-07T05:37:25.281Z,65.74
2018-02-07T05:39:52.947Z,65.30
2018-02-07T05:42:20.699Z,65.62
2018-02-07T05:44:48.414Z,65.60
2018-02-07T05:47:16.095Z,65.36
2018-02-07T05:49:43.914Z,65.24
2018-02-07T05:52:11.599Z,64.87
2018-02-07T05:54:39.365Z,65.26
2018-02-07T05:57:07.076Z,64.93
2018-02-07T05:59:34.747Z,64.68
2018-02-07T06:02:02.608Z,65.07
2018-02-07T06:04:30.282Z,64.85
2018-02-07T06:06:57.963Z,64.69
2018-02-07T06:09:25.674Z,64.71
2018-02-07T06:11:53.338Z,64.80
2018-02-07T06:14:21.044Z,64.92
2018-02-07T06:16:48.766Z,64.99
2018-02-07T06:19:16.439Z,65.10
2018-02-07T06:21:44.147Z,65.16
2018-02-07T06:24:11.843Z,64.81
2018-02-07T06:26:39.566Z,64.96
2018-02-07T06:29:07.239Z,65.12
2018-02-07T06:31:34.917Z,65.19
2018-02-07T06:34:02.628Z,65.03
2018-02-07T06:36:30.339Z,65.00
2018-02-07T06:38:58.429Z,65.11
2018-02-07T06:41:26.111Z,64.60
2018-02-07T06:43:53.781Z,64.55
2018-02-07T06:46:21.478Z,64.86
2018-02-07T06:48:49.173Z,65.35
2018-02-07T06:51:17.173Z,65.98
2018-02-07T06:53:44.835Z,65.66
2018-02-07T06:56:13.996Z,65.94
2018-02-07T06:58:41.712Z,66.12
2018-02-07T07:01:09.376Z,66.25
2018-02-07T07:03:37.423Z,65.93
2018-02-07T07:06:05.107Z,65.82
2018-02-07T07:08:32.790Z,65.50
2018-02-07T07:11:00.525Z,65.74
2018-02-07T07:13:28.221Z,65.94
2018-02-07T07:15:55.937Z,66.48
2018-02-07T07:18:23.622Z,65.40
2018-02-07T07:20:51.329Z,65.41
2018-02-07T07:23:19.044Z,65.08
2018-02-07T07:25:46.726Z,65.50
2018-02-07T07:28:14.985Z,65.45
2018-02-07T07:30:42.671Z,64.77
2018-02-07T07:33:10.386Z,65.70
2018-02-07T07:35:38.508Z,64.79
2018-02-07T07:38:06.196Z,65.60
2018-02-07T07:40:34.211Z,66.03
2018-02-07T07:43:01.892Z,65.52
2018-02-07T07:45:29.566Z,65.90
2018-02-07T07:47:57.264Z,66.44
2018-02-07T07:50:24.939Z,65.56
2018-02-07T07:52:52.683Z,66.11
2018-02-07T07:55:20.374Z,66.24
2018-02-07T07:57:48.036Z,66.50
2018-02-07T08:00:15.754Z,66.62
2018-02-07T08:02:43.426Z,66.58
2018-02-07T08:05:11.342Z,66.47
2018-02-07T08:07:39.023Z,66.28
2018-02-07T08:10:06.685Z,65.71
2018-02-07T08:12:34.372Z,65.88
2018-02-07T08:15:02.046Z,65.00
2018-02-07T08:17:29.972Z,64.96
2018-02-07T08:19:57.644Z,64.84
2018-02-07T08:22:25.331Z,65.13
2018-02-07T08:24:53.048Z,64.65
2018-02-07T08:27:20.721Z,64.34
2018-02-07T08:29:48.581Z,64.82
2018-02-07T08:32:16.346Z,64.53
2018-02-07T08:34:44.008Z,64.89
2018-02-07T08:37:11.716Z,63.97
2018-02-07T08:39:39.395Z,64.21
2018-02-07T08:42:07.125Z,63.22
2018-02-07T08:44:34.797Z,63.18
2018-02-07T08:47:02.519Z,63.04
2018-02-07T08:49:30.214Z,63.14
2018-02-07T08:51:57.903Z,62.37
2018-02-07T08:54:25.610Z,63.87
2018-02-07T08:56:53.306Z,61.88
2018-02-07T08:59:21.623Z,62.10
2018-02-07T09:01:49.377Z,62.63
2018-02-07T09:04:17.053Z,62.98
2018-02-07T09:06:45.143Z,63.41
2018-02-07T09:09:12.858Z,63.42
2018-02-07T09:11:40.546Z,62.17
2018-02-07T09:14:08.249Z,62.77
2018-02-07T09:16:35.935Z,62.72
2018-02-07T09:19:04.281Z,63.87
2018-02-07T09:21:32.079Z,62.97
2018-02-07T09:23:59.917Z,63.34
2018-02-07T09:26:27.639Z,62.36
2018-02-07T09:28:55.323Z,62.41
2018-02-07T09:31:23.109Z,62.03
2018-02-07T09:33:50.815Z,61.99
2018-02-07T09:36:18.505Z,63.41
2018-02-07T09:38:46.200Z,63.16
2018-02-07T09:41:13.882Z,61.80
2018-02-07T09:43:41.752Z,62.38
2018-02-07T09:46:09.430Z,61.66
2018-02-07T09:48:37.112Z,62.24
2018-02-07T09:51:04.819Z,62.76
2018-02-07T09:53:32.496Z,63.20
2018-02-07T09:56:00.503Z,61.57
2018-02-07T09:58:28.184Z,61.51
2018-02-07T10:00:55.879Z,62.16
2018-02-07T10:03:23.592Z,62.01
2018-02-07T10:05:51.648Z,61.21
2018-02-07T10:08:19.454Z,60.99
2018-02-07T10:10:47.136Z,62.06
2018-02-07T10:13:15.124Z,60.75
2018-02-07T10:15:42.915Z,62.14
2018-02-07T10:18:10.581Z,61.45
2018-02-07T10:20:38.708Z,61.18
2018-02-07T10:23:06.864Z,60.77
2018-02-07T10:25:35.018Z,61.11
2018-02-07T10:28:02.767Z,59.86
2018-02-07T10:30:30.475Z,61.24
2018-02-07T10:32:58.335Z,60.65
2018-02-07T10:35:26.015Z,60.43
2018-02-07T10:37:53.714Z,61.42
2018-02-07T10:40:21.435Z,59.50
2018-02-07T10:42:49.131Z,59.79
2018-02-07T10:45:17.263Z,59.79
2018-02-07T10:47:44.943Z,58.24
2018-02-07T10:50:12.615Z,58.73
2018-02-07T10:52:40.769Z,58.21
2018-02-07T10:55:08.637Z,57.76
2018-02-07T10:57:37.923Z,57.96
2018-02-07T11:00:05.760Z,58.54
2018-02-07T11:02:33.443Z,58.87
2018-02-07T11:05:01.155Z,58.09
2018-02-07T11:07:28.849Z,57.20
2018-02-07T11:09:56.746Z,57.72
2018-02-07T11:12:24.425Z,57.12
2018-02-07T11:14:52.247Z,57.89
2018-02-07T11:17:19.933Z,58.93
2018-02-07T11:19:48.440Z,57.92
2018-02-07T11:22:16.148Z,58.23
2018-02-07T11:24:44.167Z,58.94
2018-02-07T11:27:11.855Z,57.78
2018-02-07T11:29:39.564Z,57.93
2018-02-07T11:32:07.266Z,59.47
2018-02-07T11:34:35.269Z,58.26
2018-02-07T11:37:02.962Z,58.00
2018-02-07T11:39:30.666Z,59.01
2018-02-07T11:41:58.365Z,58.98
2018-02-07T11:44:26.071Z,57.39
2018-02-07T11:46:53.782Z,57.37
2018-02-07T11:49:21.455Z,57.71
2018-02-07T11:51:49.135Z,58.38
2018-02-07T11:54:17.085Z,57.69
2018-02-07T11:56:44.767Z,56.71
2018-02-07T11:59:13.079Z,57.22
2018-02-07T12:01:40.766Z,57.18
2018-02-07T12:04:08.451Z,58.33
2018-02-07T12:06:36.155Z,58.13
2018-02-07T12:09:04.020Z,57.26
2018-02-07T12:11:32.006Z,58.49
2018-02-07T12:13:59.687Z,58.10
2018-02-07T12:16:27.390Z,58.71
2018-02-07T12:18:55.095Z,58.26
2018-02-07T12:21:22.826Z,57.13
2018-02-07T12:23:51.421Z,57.14
2018-02-07T12:26:19.115Z,57.12
2018-02-07T12:28:46.862Z,57.14
2018-02-07T12:31:14.581Z,57.56
2018-02-07T12:33:42.261Z,57.22
2018-02-07T12:36:09.979Z,57.46
2018-02-07T12:38:37.727Z,56.38
2018-02-07T12:41:05.422Z,55.79
2018-02-07T12:43:33.122Z,56.65
2018-02-07T12:46:00.801Z,56.93
2018-02-07T12:48:28.795Z,55.59
2018-02-07T12:50:56.526Z,56.71
2018-02-07T12:53:24.412Z,57.05
2018-02-07T12:55:52.594Z,58.16
2018-02-07T12:58:20.267Z,57.65
2018-02-07T13:00:48.026Z,58.07
2018-02-07T13:03:15.711Z,57.62
2018-02-07T13:05:43.410Z,57.54
2018-02-07T13:08:11.130Z,57.48
2018-02-07T13:10:38.835Z,57.75
2018-02-07T13:13:07.022Z,59.68
2018-02-07T13:15:34.702Z,58.79
2018-02-07T13:18:02.368Z,57.76
2018-02-07T13:20:30.080Z,56.30
2018-02-07T13:22:58.158Z,57.11
2018-02-07T13:25:26.215Z,56.05
2018-02-07T13:27:53.900Z,55.91
2018-02-07T13:30:21.580Z,55.54
2018-02-07T13:32:49.291Z,55.85
2018-02-07T13:35:16.993Z,56.05
2018-02-07T13:37:45.444Z,56.65
2018-02-07T13:40:13.140Z,54.95
2018-02-07T13:42:40.861Z,57.76
2018-02-07T13:45:08.576Z,57.25
2018-02-07T13:47:36.274Z,56.02
2018-02-07T13:50:03.994Z,55.44
2018-02-07T13:52:31.704Z,55.71
2018-02-07T13:54:59.654Z,53.77
2018-02-07T13:57:27.347Z,53.11
2018-02-07T13:59:54.956Z,53.40
2018-02-07T14:02:22.885Z,53.91
2018-02-07T14:04:50.571Z,53.00
2018-02-07T14:07:18.191Z,52.84
2018-02-07T14:09:45.897Z,52.83
2018-02-07T14:12:13.597Z,54.65
2018-02-07T14:14:41.882Z,54.10
2018-02-07T14:17:09.563Z,53.42
2018-02-07T14:19:37.518Z,52.94
2018-02-07T14:22:05.213Z,53.15
2018-02-07T14:24:33.345Z,53.34
2018-02-07T14:27:00.983Z,53.57
2018-02-07T14:29:28.576Z,52.38
2018-02-07T14:31:56.407Z,52.33
2018-02-07T14:34:24.000Z,52.89
2018-02-07T14:36:51.599Z,52.97
2018-02-07T14:39:19.228Z,53.17
2018-02-07T14:42:01.023Z,54.98
2018-02-07T14:44:29.982Z,54.83
2018-02-07T14:46:57.605Z,56.13
2018-02-07T14:49:25.291Z,55.74
2018-02-07T14:51:52.911Z,57.82
2018-02-07T14:54:20.959Z,55.24
2018-02-07T14:56:48.718Z,54.92
2018-02-07T14:59:16.390Z,54.67
2018-02-07T15:01:44.009Z,55.37
2018-02-07T15:04:11.787Z,53.79
2018-02-07T15:06:39.481Z,54.81
2018-02-07T15:09:07.511Z,56.05
2018-02-07T15:11:35.182Z,54.58
2018-02-07T15:14:02.912Z,54.53
2018-02-07T15:16:30.731Z,54.96
2018-02-07T15:18:58.431Z,55.28
2018-02-07T15:21:27.003Z,54.69
2018-02-07T15:23:55.063Z,55.08
2018-02-07T15:26:22.728Z,54.85
2018-02-07T15:28:50.368Z,54.56
2018-02-07T15:31:18.189Z,56.20
2018-02-07T15:33:45.903Z,55.38
2018-02-07T15:36:13.497Z,56.20
2018-02-07T15:38:41.208Z,56.08
2018-02-07T15:41:08.823Z,56.51
2018-02-07T15:43:36.495Z,55.75
2018-02-07T15:46:04.533Z,56.21
2018-02-07T15:48:32.223Z,56.40
2018-02-07T15:50:59.921Z,55.51
2018-02-07T15:53:27.705Z,54.81
2018-02-07T15:55:55.438Z,55.57
2018-02-07T15:58:23.174Z,55.96
2018-02-07T16:00:50.918Z,55.79
2018-02-07T16:03:18.601Z,55.93
2018-02-07T16:05:46.326Z,57.30
2018-02-07T16:08:14.003Z,56.45
2018-02-07T16:10:41.853Z,56.22
2018-02-07T16:13:09.551Z,56.34
2018-02-07T16:15:37.251Z,56.24
2018-02-07T16:18:05.020Z,57.67
2018-02-07T16:20:32.703Z,57.82
2018-02-07T16:23:01.075Z,58.78
2018-02-07T16:25:29.236Z,58.75
2018-02-07T16:27:56.915Z,60.02
2018-02-07T16:30:24.600Z,58.81
2018-02-07T16:32:52.372Z,59.08
2018-02-07T16:35:20.305Z,59.41
2018-02-07T16:37:47.980Z,59.59
2018-02-07T16:40:15.644Z,60.15
2018-02-07T16:42:43.361Z,60.58
2018-02-07T16:45:11.046Z,61.32
2018-02-07T16:47:38.984Z,61.37
2018-02-07T16:50:06.646Z,61.70
2018-02-07T16:52:34.311Z,61.06
2018-02-07T16:55:02.435Z,61.36
2018-02-07T16:57:30.119Z,61.05
2018-02-07T16:59:58.318Z,61.14
2018-02-07T17:02:26.011Z,61.11
2018-02-07T17:04:53.707Z,61.20
2018-02-07T17:07:21.403Z,61.72
2018-02-07T17:09:49.087Z,61.79
2018-02-07T17:12:17.188Z,61.79
2018-02-07T17:14:44.874Z,61.93
2018-02-07T17:17:12.556Z,62.48
2018-02-07T17:19:40.248Z,62.62
2018-02-07T17:22:07.923Z,62.45
2018-02-07T17:24:36.223Z,62.31
2018-02-07T17:27:03.903Z,62.71
2018-02-07T17:29:31.577Z,62.20
2018-02-07T17:31:59.264Z,62.34
2018-02-07T17:34:26.973Z,61.94
2018-02-07T17:36:54.823Z,62.16
2018-02-07T17:39:22.488Z,61.82
2018-02-07T17:41:50.159Z,62.15
2018-02-07T17:44:17.875Z,62.52
2018-02-07T17:46:45.552Z,61.79
2018-02-07T17:49:13.256Z,61.45
2018-02-07T17:51:40.938Z,61.68
2018-02-07T17:54:08.628Z,61.50
2018-02-07T17:56:36.350Z,61.23
2018-02-07T17:59:04.015Z,60.91
2018-02-07T18:01:31.859Z,61.22
2018-02-07T18:03:59.547Z,61.42
2018-02-07T18:06:27.225Z,60.82
2018-02-07T18:08:54.928Z,60.68
2018-02-07T18:11:22.614Z,60.50
2018-02-07T18:13:50.304Z,61.25
2018-02-07T18:16:17.985Z,61.24
2018-02-07T18:18:45.912Z,61.04
2018-02-07T18:21:13.669Z,60.98
2018-02-07T18:23:41.347Z,61.46
2018-02-07T18:26:09.029Z,61.06
2018-02-07T18:28:36.707Z,61.50
2018-02-07T18:31:04.400Z,61.28
2018-02-07T18:33:32.075Z,60.85
2018-02-07T18:36:00.079Z,60.43
2018-02-07T18:38:27.834Z,60.37
2018-02-07T18:40:55.503Z,60.73
2018-02-07T18:43:23.221Z,60.66
2018-02-07T18:45:50.920Z,60.75
2018-02-07T18:48:19.111Z,60.82
2018-02-07T18:50:46.781Z,60.86
2018-02-07T18:53:14.819Z,60.51
2018-02-07T18:55:42.500Z,60.86
2018-02-07T18:58:10.404Z,61.31
2018-02-07T19:00:38.128Z,60.56
2018-02-07T19:03:05.823Z,61.07
2018-02-07T19:05:34.452Z,61.24
2018-02-07T19:08:02.350Z,61.29
2018-02-07T19:10:30.763Z,60.90
2018-02-07T19:12:58.810Z,60.85
2018-02-07T19:15:26.684Z,60.99
2018-02-07T19:17:54.502Z,61.01
2018-02-07T19:20:22.199Z,61.24
2018-02-07T19:22:49.896Z,61.07
2018-02-07T19:25:17.630Z,60.55
2018-02-07T19:27:45.350Z,60.92
2018-02-07T19:30:13.044Z,61.82
2018-02-07T19:32:40.746Z,60.98
2018-02-07T19:35:08.489Z,61.29
2018-02-07T19:37:36.161Z,61.28
2018-02-07T19:40:04.112Z,61.75
2018-02-07T19:42:32.044Z,61.52
2018-02-07T19:44:59.722Z,61.28
2018-02-07T19:47:27.442Z,61.25
2018-02-07T19:49:55.126Z,61.77
2018-02-07T19:52:22.827Z,61.10
2018-02-07T19:54:50.510Z,61.41
2018-02-07T19:57:18.335Z,61.07
2018-02-07T19:59:46.016Z,61.48
2018-02-07T20:02:13.736Z,62.26
2018-02-07T20:04:41.436Z,62.07
2018-02-07T20:07:09.120Z,61.35
2018-02-07T20:09:36.829Z,61.58
2018-02-07T20:12:04.513Z,61.13
2018-02-07T20:14:32.587Z,61.33
2018-02-07T20:17:00.267Z,61.13
2018-02-07T20:19:28.004Z,62.02
2018-02-07T20:21:55.710Z,62.30
2018-02-07T20:24:23.397Z,61.80
2018-02-07T20:26:51.097Z,62.14
2018-02-07T20:29:18.779Z,61.81
2018-02-07T20:31:46.489Z,61.09
2018-02-07T20:34:14.348Z,60.83
2018-02-07T20:36:42.075Z,60.50
2018-02-07T20:39:09.764Z,60.93
2018-02-07T20:41:37.442Z,60.50
2018-02-07T20:44:05.143Z,60.67
2018-02-07T20:46:32.836Z,61.46
2018-02-07T20:49:00.555Z,61.63
2018-02-07T20:51:28.237Z,61.45
2018-02-07T20:53:55.945Z,60.88
2018-02-07T20:56:23.635Z,60.81
2018-02-07T20:58:51.326Z,61.14
2018-02-07T21:01:19.025Z,60.77
2018-02-07T21:03:46.704Z,61.64
2018-02-07T21:06:14.436Z,61.55
2018-02-07T21:08:42.120Z,61.72
2018-02-07T21:11:09.834Z,61.01
2018-02-07T21:13:37.534Z,61.53
2018-02-07T21:18:32.612Z,62.35
2018-02-07T21:21:00.286Z,61.58
2018-02-07T21:23:27.996Z,61.99
2018-02-07T21:25:55.706Z,61.68
2018-02-07T21:28:23.413Z,61.94
2018-02-07T21:30:51.083Z,62.21
2018-02-07T21:33:18.865Z,62.65
2018-02-07T21:35:46.555Z,62.73
2018-02-07T21:38:14.233Z,63.32
2018-02-07T21:40:41.933Z,62.43
2018-02-07T21:43:09.973Z,63.23
2018-02-07T21:45:37.685Z,63.08
2018-02-07T21:48:05.351Z,63.63
2018-02-07T21:50:33.239Z,63.22
2018-02-07T21:53:00.914Z,63.04
2018-02-07T21:55:28.635Z,63.30
2018-02-07T21:57:56.675Z,63.17
2018-02-07T22:00:25.096Z,62.83
2018-02-07T22:02:52.794Z,63.25
2018-02-07T22:05:20.469Z,63.77
2018-02-07T22:07:48.305Z,63.02
2018-02-07T22:10:15.971Z,63.20
2018-02-07T22:12:43.719Z,63.15
2018-02-07T22:15:11.430Z,63.78
2018-02-07T22:17:39.107Z,63.12
2018-02-07T22:20:06.871Z,62.64
2018-02-07T22:22:34.590Z,63.23
2018-02-07T22:25:02.470Z,63.44
2018-02-07T22:27:30.145Z,64.04
2018-02-07T22:29:57.843Z,63.39
2018-02-07T22:32:25.546Z,63.27
2018-02-07T22:34:53.211Z,63.69
2018-02-07T22:37:20.903Z,62.30
2018-02-07T22:39:48.585Z,62.75
2018-02-07T22:42:16.488Z,63.01
2018-02-07T22:44:44.153Z,63.36
2018-02-07T22:47:11.821Z,63.57
2018-02-07T22:49:39.512Z,62.52
2018-02-07T22:52:07.179Z,62.68
2018-02-07T22:54:34.872Z,62.52
2018-02-07T22:57:02.535Z,62.17
2018-02-07T22:59:30.640Z,62.15
2018-02-07T23:01:58.307Z,61.66
2018-02-07T23:04:25.999Z,61.95
2018-02-07T23:06:53.708Z,62.00
2018-02-07T23:09:21.388Z,62.08
2018-02-07T23:11:49.084Z,61.77
2018-02-07T23:14:16.766Z,60.92
2018-02-07T23:16:44.491Z,62.03
2018-02-07T23:19:12.169Z,61.93
2018-02-07T23:21:39.839Z,61.45
2018-02-07T23:24:07.540Z,61.07
2018-02-07T23:26:35.215Z,61.45
2018-02-07T23:29:02.924Z,61.25
2018-02-07T23:31:30.605Z,60.88
2018-02-07T23:33:58.531Z,61.17
2018-02-07T23:36:26.215Z,61.06
2018-02-07T23:38:53.909Z,61.09
2018-02-07T23:41:21.596Z,61.12
2018-02-07T23:43:49.276Z,61.21
2018-02-07T23:46:16.978Z,61.53
2018-02-07T23:48:44.662Z,62.14
2018-02-07T23:51:12.358Z,62.35
2018-02-07T23:53:40.061Z,62.88
2018-02-07T23:56:07.728Z,62.78
2018-02-07T23:58:35.449Z,62.65
